Time;durP1;ratioP1;P1;durP2;ratioP2;P2;SDS_P1;SDS_P2;PMS_P1;PMS_P2;Temp;Humidity;BMP_temperature;BMP_pressure;BME280_temperature;BME280_humidity;BME280_pressure;Samples;Min_cycle;Max_cycle;Signal;HPM_P1;HPM_P2
2023/10/02 00:01:17;;;;;;;30.70;18.08;;;;;;;;;;5070690;28;20482;-62
2023/10/02 00:03:42;;;;;;;30.38;16.17;;;;;;;;;;5071312;28;20092;-62
2023/10/02 00:06:11;;;;;;;25.48;16.33;;;;;;;;;;5069958;28;20127;-62
2023/10/02 00:08:42;;;;;;;21.02;13.07;;;;;;;;;;5072028;28;20025;-62
2023/10/02 00:11:35;;;;;;;24.50;16.40;;;;;;;;;;5069919;28;20106;-67
2023/10/02 00:14:18;;;;;;;32.05;17.95;;;;;;;;;;5071365;28;20028;-61
2023/10/02 00:16:42;;;;;;;32.67;16.27;;;;;;;;;;5070030;28;20093;-61
2023/10/02 00:19:18;;;;;;;27.50;15.65;;;;;;;;;;5071238;28;20538;-62
2023/10/02 00:21:43;;;;;;;30.10;16.73;;;;;;;;;;5069795;28;20037;-62
2023/10/02 00:24:09;;;;;;;31.25;16.73;;;;;;;;;;5070078;28;20486;-62
2023/10/02 00:26:35;;;;;;;29.60;17.27;;;;;;;;;;5069344;28;20043;-62
2023/10/02 00:29:02;;;;;;;29.10;17.02;;;;;;;;;;5071206;28;20020;-62
2023/10/02 00:31:35;;;;;;;24.20;14.93;;;;;;;;;;5070065;28;20039;-62
2023/10/02 00:34:01;;;;;;;32.33;17.20;;;;;;;;;;5070596;28;20044;-62
2023/10/02 00:36:29;;;;;;;30.95;18.52;;;;;;;;;;5069545;28;20063;-62
2023/10/02 00:38:54;;;;;;;27.52;16.75;;;;;;;;;;5069648;28;20051;-61
2023/10/02 00:41:20;;;;;;;28.23;16.90;;;;;;;;;;5069344;28;20460;-62
2023/10/02 00:43:45;;;;;;;25.58;16.35;;;;;;;;;;5070891;28;20028;-61
2023/10/02 00:46:23;;;;;;;26.05;16.23;;;;;;;;;;5069548;28;20040;-61
2023/10/02 00:48:48;;;;;;;29.40;17.67;;;;;;;;;;5069210;28;20082;-62
2023/10/02 00:51:13;;;;;;;26.00;18.08;;;;;;;;;;5069693;28;20040;-62
2023/10/02 00:53:46;;;;;;;21.63;13.83;;;;;;;;;;5070609;28;20506;-62
2023/10/02 00:56:23;;;;;;;27.67;14.77;;;;;;;;;;5069134;28;20463;-63
2023/10/02 00:58:54;;;;;;;25.90;15.07;;;;;;;;;;5070712;28;20404;-62
2023/10/02 01:01:20;;;;;;;31.13;15.95;;;;;;;;;;5069368;28;20089;-62
2023/10/02 01:06:29;;;;;;;24.40;14.23;;;;;;;;;;5069326;28;20051;-62
2023/10/02 01:08:54;;;;;;;29.60;16.63;;;;;;;;;;5070784;28;20020;-62
2023/10/02 01:11:20;;;;;;;24.60;16.93;;;;;;;;;;5068867;28;20041;-62
2023/10/02 01:13:45;;;;;;;23.73;15.13;;;;;;;;;;5070778;28;20016;-62
2023/10/02 01:16:13;;;;;;;27.05;16.40;;;;;;;;;;5069080;28;20029;-62
2023/10/02 01:18:39;;;;;;;33.38;18.80;;;;;;;;;;5070317;28;20108;-62
2023/10/02 01:21:18;;;;;;;29.17;16.42;;;;;;;;;;5069130;28;20118;-61
2023/10/02 01:24:06;;;;;;;27.10;15.85;;;;;;;;;;5070549;28;20100;-61
2023/10/02 01:26:36;;;;;;;30.75;18.30;;;;;;;;;;5068432;28;20465;-62
2023/10/02 01:29:03;;;;;;;32.70;19.08;;;;;;;;;;5069267;28;20020;-62
2023/10/02 01:31:35;;;;;;;26.25;16.23;;;;;;;;;;5069066;28;20097;-62
2023/10/02 01:34:02;;;;;;;32.15;17.85;;;;;;;;;;5068398;28;20033;-62
2023/10/02 01:36:30;;;;;;;30.77;18.55;;;;;;;;;;5068966;28;20037;-62
2023/10/02 01:38:59;;;;;;;22.30;14.45;;;;;;;;;;5070269;28;20112;-63
2023/10/02 01:41:26;;;;;;;29.33;17.35;;;;;;;;;;5068592;28;20035;-62
2023/10/02 01:43:52;;;;;;;24.13;15.00;;;;;;;;;;5070220;28;20028;-62
2023/10/02 01:46:17;;;;;;;25.42;15.32;;;;;;;;;;5068788;28;20064;-62
2023/10/02 01:48:48;;;;;;;28.23;17.87;;;;;;;;;;5069697;28;20040;-62
2023/10/02 01:51:25;;;;;;;25.55;15.65;;;;;;;;;;5058646;28;20408;-63
2023/10/02 01:53:53;;;;;;;27.58;18.40;;;;;;;;;;5050370;28;20013;-63
2023/10/02 01:56:19;;;;;;;23.95;17.38;;;;;;;;;;5048430;28;20119;-61
2023/10/02 01:58:44;;;;;;;29.05;18.38;;;;;;;;;;5050744;28;20467;-61
2023/10/02 02:01:10;;;;;;;28.55;17.00;;;;;;;;;;5048625;28;20061;-61
2023/10/02 02:03:36;;;;;;;25.17;16.05;;;;;;;;;;5050021;28;20013;-65
2023/10/02 02:06:08;;;;;;;24.17;16.75;;;;;;;;;;5048293;28;20045;-61
2023/10/02 02:08:35;;;;;;;27.52;15.75;;;;;;;;;;5050379;28;20032;-62
2023/10/02 02:11:14;;;;;;;23.27;14.27;;;;;;;;;;5047937;28;20063;-62
2023/10/02 02:13:44;;;;;;;27.33;16.40;;;;;;;;;;5050798;28;20029;-62
2023/10/02 02:16:11;;;;;;;24.65;16.00;;;;;;;;;;5052661;28;20029;-61
2023/10/02 02:18:36;;;;;;;28.88;16.88;;;;;;;;;;5053605;28;20046;-61
2023/10/02 02:21:02;;;;;;;28.00;16.80;;;;;;;;;;5052271;28;20124;-61
2023/10/02 02:23:30;;;;;;;30.90;15.90;;;;;;;;;;5052362;28;20132;-61
2023/10/02 02:25:55;;;;;;;31.92;17.75;;;;;;;;;;5051669;28;20441;-61
2023/10/02 02:28:21;;;;;;;25.77;14.70;;;;;;;;;;5053753;28;20029;-61
2023/10/02 02:30:47;;;;;;;22.08;14.68;;;;;;;;;;5051991;28;20033;-62
2023/10/02 02:33:13;;;;;;;25.42;15.00;;;;;;;;;;5053216;28;20036;-60
2023/10/02 02:35:39;;;;;;;23.35;15.55;;;;;;;;;;5051978;28;20037;-62
2023/10/02 02:38:13;;;;;;;31.13;16.98;;;;;;;;;;5053887;28;20110;-62
2023/10/02 02:40:40;;;;;;;27.10;15.75;;;;;;;;;;5051439;28;20412;-61
2023/10/02 02:43:12;;;;;;;31.10;16.58;;;;;;;;;;5053710;28;20021;-61
2023/10/02 02:45:38;;;;;;;32.28;16.83;;;;;;;;;;5051716;28;20041;-62
2023/10/02 02:48:06;;;;;;;27.85;15.40;;;;;;;;;;5057432;28;20534;-63
2023/10/02 02:50:35;;;;;;;30.60;14.32;;;;;;;;;;5072145;28;20041;-61
2023/10/02 02:55:44;;;;;;;29.23;16.30;;;;;;;;;;5071750;28;20117;-63
2023/10/02 02:58:10;;;;;;;22.88;13.10;;;;;;;;;;5072813;28;20195;-68
2023/10/02 03:00:37;;;;;;;27.45;14.15;;;;;;;;;;5071700;28;20408;-62
2023/10/02 03:03:02;;;;;;;28.95;15.90;;;;;;;;;;5072498;28;20030;-62
2023/10/02 03:05:43;;;;;;;31.55;15.18;;;;;;;;;;5071043;28;20036;-62
2023/10/02 03:08:08;;;;;;;32.83;14.23;;;;;;;;;;5072667;28;20054;-62
2023/10/02 03:10:37;;;;;;;26.63;15.00;;;;;;;;;;5071361;28;20071;-62
2023/10/02 03:13:03;;;;;;;23.58;14.52;;;;;;;;;;5072883;28;20016;-62
2023/10/02 03:18:31;;;;;;;25.00;13.05;;;;;;;;;;5072042;28;20430;-62
2023/10/02 03:20:58;;;;;;;24.40;14.02;;;;;;;;;;5071313;28;20032;-61
2023/10/02 03:23:25;;;;;;;33.17;18.45;;;;;;;;;;5072584;28;20028;-62
2023/10/02 03:25:55;;;;;;;32.88;19.40;;;;;;;;;;5069957;28;20127;-62
2023/10/02 03:28:32;;;;;;;27.33;16.30;;;;;;;;;;5072934;28;20072;-62
2023/10/02 03:30:57;;;;;;;26.60;15.15;;;;;;;;;;5070626;28;20060;-62
2023/10/02 03:33:25;;;;;;;23.48;14.38;;;;;;;;;;5072497;28;20047;-62
2023/10/02 03:36:10;;;;;;;24.77;14.13;;;;;;;;;;5070943;28;20044;-62
2023/10/02 03:38:41;;;;;;;25.85;13.00;;;;;;;;;;5070843;28;20567;-62
2023/10/02 03:41:06;;;;;;;33.38;17.88;;;;;;;;;;5069623;28;20115;-62
2023/10/02 03:43:34;;;;;;;24.48;13.93;;;;;;;;;;5072399;28;20100;-62
2023/10/02 03:46:06;;;;;;;28.65;15.20;;;;;;;;;;5069956;28;20036;-62
2023/10/02 03:48:32;;;;;;;26.70;14.52;;;;;;;;;;5072238;28;20505;-62
2023/10/02 03:50:57;;;;;;;22.17;16.13;;;;;;;;;;5070370;28;20029;-62
2023/10/02 03:53:29;;;;;;;28.00;15.95;;;;;;;;;;5072005;28;20024;-69
2023/10/02 03:56:36;;;;;;;26.45;15.85;;;;;;;;;;5070153;28;20521;-62
2023/10/02 03:58:53;;;;;;;21.70;13.15;;;;;;;;;;5071617;28;20119;-62
2023/10/02 04:01:27;;;;;;;24.45;14.35;;;;;;;;;;5069610;28;20036;-62
2023/10/02 04:04:35;;;;;;;22.23;11.88;;;;;;;;;;5071968;28;20086;-63
2023/10/02 04:06:44;;;;;;;25.95;15.80;;;;;;;;;;5066846;28;20078;-63
2023/10/02 04:11:39;;;;;;;26.95;13.65;;;;;;;;;;5068516;28;20115;-63
2023/10/02 04:14:17;;;;;;;27.88;14.15;;;;;;;;;;5057839;28;20100;-60
2023/10/02 04:16:43;;;;;;;21.40;13.97;;;;;;;;;;5066721;28;20435;-60
2023/10/02 04:19:08;;;;;;;29.45;16.77;;;;;;;;;;5070181;28;20402;-60
2023/10/02 04:21:33;;;;;;;24.60;13.93;;;;;;;;;;5069991;28;20117;-60
2023/10/02 04:23:59;;;;;;;24.50;15.70;;;;;;;;;;5070444;28;20021;-60
2023/10/02 04:26:24;;;;;;;28.63;16.65;;;;;;;;;;5069239;28;20035;-62
2023/10/02 04:28:55;;;;;;;24.48;13.95;;;;;;;;;;5069713;28;20379;-60
2023/10/02 04:31:21;;;;;;;30.13;15.65;;;;;;;;;;5066384;28;20032;-60
2023/10/02 04:34:14;;;;;;;25.90;15.65;;;;;;;;;;5050988;28;20073;-60
2023/10/02 04:36:40;;;;;;;23.35;15.18;;;;;;;;;;5049920;28;20029;-59
2023/10/02 04:39:11;;;;;;;25.08;12.90;;;;;;;;;;5068255;28;20024;-59
2023/10/02 04:42:06;;;;;;;24.20;15.27;;;;;;;;;;5060876;28;20040;-59
2023/10/02 04:44:22;;;;;;;28.20;16.08;;;;;;;;;;5050627;28;20029;-59
2023/10/02 04:46:52;;;;;;;22.83;14.82;;;;;;;;;;5049313;28;20052;-60
2023/10/02 04:49:17;;;;;;;24.05;13.80;;;;;;;;;;5051174;28;20091;-60
2023/10/02 04:51:46;;;;;;;25.88;14.35;;;;;;;;;;5048994;28;20112;-60
2023/10/02 04:54:11;;;;;;;36.30;13.95;;;;;;;;;;5051171;28;20044;-61
2023/10/02 04:56:37;;;;;;;23.35;14.20;;;;;;;;;;5049517;28;20057;-60
2023/10/02 04:59:03;;;;;;;26.17;17.20;;;;;;;;;;5050645;28;20495;-60
2023/10/02 05:01:41;;;;;;;22.33;14.20;;;;;;;;;;5049379;28;20037;-60
2023/10/02 05:04:07;;;;;;;28.90;14.60;;;;;;;;;;5050987;28;20040;-60
2023/10/02 05:06:49;;;;;;;25.60;15.60;;;;;;;;;;5048972;28;20041;-69
2023/10/02 05:11:55;;;;;;;25.23;15.18;;;;;;;;;;5049053;28;20116;-60
2023/10/02 05:14:28;;;;;;;23.75;13.55;;;;;;;;;;5048905;28;20021;-62
2023/10/02 05:17:04;;;;;;;20.38;12.85;;;;;;;;;;5048771;28;20519;-60
2023/10/02 05:22:24;;;;;;;26.55;14.10;;;;;;;;;;5068875;28;20040;-60
2023/10/02 05:24:58;;;;;;;22.23;14.60;;;;;;;;;;5070258;28;20024;-58
2023/10/02 05:27:29;;;;;;;27.50;14.63;;;;;;;;;;5069136;28;20446;-57
2023/10/02 05:29:54;;;;;;;28.52;14.90;;;;;;;;;;5068203;28;20088;-57
2023/10/02 05:32:23;;;;;;;28.48;15.40;;;;;;;;;;5070466;28;20427;-57
2023/10/02 05:35:16;;;;;;;24.17;17.23;;;;;;;;;;5069836;28;20051;-59
2023/10/02 05:37:42;;;;;;;27.75;15.43;;;;;;;;;;5048404;28;20503;-57
2023/10/02 05:42:53;;;;;;;26.20;16.10;;;;;;;;;;5070107;28;20025;-57
2023/10/02 05:45:38;;;;;;;26.52;15.77;;;;;;;;;;5068687;28;20056;-57
2023/10/02 05:48:07;;;;;;;22.27;14.20;;;;;;;;;;5070874;28;20028;-57
2023/10/02 05:50:33;;;;;;;25.13;14.73;;;;;;;;;;5075316;28;20037;-57
2023/10/02 05:52:58;;;;;;;28.08;15.68;;;;;;;;;;5076400;28;20074;-57
2023/10/02 05:55:25;;;;;;;29.83;14.52;;;;;;;;;;5075584;28;20181;-57
2023/10/02 05:57:52;;;;;;;32.17;16.73;;;;;;;;;;5076531;28;20103;-58
2023/10/02 06:00:20;;;;;;;27.05;15.23;;;;;;;;;;5075150;28;20028;-57
2023/10/02 06:02:57;;;;;;;28.83;15.83;;;;;;;;;;5076607;28;20462;-57
2023/10/02 06:05:23;;;;;;;22.07;14.13;;;;;;;;;;5075572;28;20048;-57
2023/10/02 06:07:51;;;;;;;23.42;14.38;;;;;;;;;;5076010;28;20020;-57
2023/10/02 06:10:25;;;;;;;32.30;15.73;;;;;;;;;;5075560;28;20332;-57
2023/10/02 06:13:03;;;;;;;30.20;14.30;;;;;;;;;;5076199;28;20411;-57
2023/10/02 06:15:46;;;;;;;21.90;12.80;;;;;;;;;;5075015;28;20036;-59
2023/10/02 06:18:24;;;;;;;29.05;13.63;;;;;;;;;;5077048;28;20020;-58
2023/10/02 06:20:57;;;;;;;19.73;15.35;;;;;;;;;;5074989;28;20081;-57
2023/10/02 06:23:23;;;;;;;32.05;17.23;;;;;;;;;;5076947;28;20027;-60
2023/10/02 06:25:49;;;;;;;23.90;13.88;;;;;;;;;;5074620;28;20048;-57
2023/10/02 06:28:23;;;;;;;24.55;15.50;;;;;;;;;;5061783;28;20020;-58
2023/10/02 06:30:49;;;;;;;28.90;16.25;;;;;;;;;;5061122;28;20067;-57
2023/10/02 06:33:17;;;;;;;34.33;17.08;;;;;;;;;;5072058;28;20060;-57
2023/10/02 06:35:45;;;;;;;26.95;18.55;;;;;;;;;;5054204;28;20143;-57
2023/10/02 06:38:15;;;;;;;29.53;13.73;;;;;;;;;;5056529;28;20426;-57
2023/10/02 06:40:55;;;;;;;24.70;13.73;;;;;;;;;;5054018;28;20032;-62
2023/10/02 06:43:28;;;;;;;21.80;15.77;;;;;;;;;;5056301;28;20021;-59
2023/10/02 06:46:06;;;;;;;30.27;16.80;;;;;;;;;;5062740;28;20258;-67
2023/10/02 06:48:31;;;;;;;29.03;14.63;;;;;;;;;;5076510;28;20383;-70
2023/10/02 06:50:58;;;;;;;27.42;16.23;;;;;;;;;;5074258;28;20058;-58
2023/10/02 06:53:24;;;;;;;26.40;13.80;;;;;;;;;;5076515;28;20095;-58
2023/10/02 06:55:58;;;;;;;20.02;13.30;;;;;;;;;;5074419;28;20120;-57
2023/10/02 06:58:24;;;;;;;27.65;12.82;;;;;;;;;;5076052;28;20387;-58
2023/10/02 07:00:55;;;;;;;30.30;13.73;;;;;;;;;;5068381;28;20042;-58
2023/10/02 07:03:21;;;;;;;27.98;15.60;;;;;;;;;;5066864;28;20451;-57
2023/10/02 07:05:48;;;;;;;23.92;13.60;;;;;;;;;;5070479;28;20090;-57
2023/10/02 07:08:22;;;;;;;24.83;15.45;;;;;;;;;;5072866;28;20020;-58
2023/10/02 07:10:48;;;;;;;25.83;16.25;;;;;;;;;;5069631;28;20039;-58
2023/10/02 07:13:20;;;;;;;23.75;15.55;;;;;;;;;;5072322;28;20020;-57
2023/10/02 07:15:45;;;;;;;28.30;13.65;;;;;;;;;;5070661;28;20095;-57
2023/10/02 07:18:12;;;;;;;24.23;14.65;;;;;;;;;;5072810;28;20052;-57
2023/10/02 07:20:42;;;;;;;26.83;15.45;;;;;;;;;;5070785;28;20067;-58
2023/10/02 07:23:13;;;;;;;28.13;16.80;;;;;;;;;;5073166;28;20078;-58
2023/10/02 07:25:38;;;;;;;21.98;14.15;;;;;;;;;;5071107;28;20047;-58
2023/10/02 07:28:03;;;;;;;22.55;13.40;;;;;;;;;;5072338;28;20021;-57
2023/10/02 07:30:29;;;;;;;27.52;13.75;;;;;;;;;;5071391;28;20040;-57
2023/10/02 07:33:02;;;;;;;23.98;14.52;;;;;;;;;;5070913;28;20471;-57
2023/10/02 07:35:28;;;;;;;25.40;14.43;;;;;;;;;;5070473;28;20082;-58
2023/10/02 07:37:59;;;;;;;25.08;13.93;;;;;;;;;;5072364;28;20099;-58
2023/10/02 07:40:46;;;;;;;21.58;13.25;;;;;;;;;;5071124;28;20095;-58
2023/10/02 07:43:11;;;;;;;23.73;13.82;;;;;;;;;;5072192;28;20480;-58
2023/10/02 07:45:37;;;;;;;23.45;15.57;;;;;;;;;;5070580;28;20052;-57
2023/10/02 07:48:08;;;;;;;24.07;16.37;;;;;;;;;;5071715;28;20032;-57
2023/10/02 07:50:38;;;;;;;29.90;15.05;;;;;;;;;;5070629;28;20040;-57
2023/10/02 07:53:06;;;;;;;26.75;14.63;;;;;;;;;;5072463;28;20020;-58
2023/10/02 07:55:39;;;;;;;25.08;12.73;;;;;;;;;;5070726;28;20040;-57
2023/10/02 07:58:04;;;;;;;19.45;12.82;;;;;;;;;;5071813;28;20023;-58
2023/10/02 08:00:33;;;;;;;21.38;12.35;;;;;;;;;;5070867;28;20037;-58
2023/10/02 08:03:02;;;;;;;26.33;15.55;;;;;;;;;;5071941;28;20032;-58
2023/10/02 08:05:28;;;;;;;30.95;14.93;;;;;;;;;;5069855;28;20036;-57
2023/10/02 08:08:08;;;;;;;21.60;14.48;;;;;;;;;;5071190;28;20529;-58
2023/10/02 08:10:48;;;;;;;27.85;13.80;;;;;;;;;;5054745;28;20376;-57
2023/10/02 08:13:14;;;;;;;26.98;14.23;;;;;;;;;;5071446;28;20021;-58
2023/10/02 08:15:40;;;;;;;26.77;13.73;;;;;;;;;;5056470;28;20033;-57
2023/10/02 08:18:14;;;;;;;25.95;13.60;;;;;;;;;;5051756;28;20032;-57
2023/10/02 08:20:40;;;;;;;22.52;13.70;;;;;;;;;;5049764;28;20037;-57
2023/10/02 08:23:21;;;;;;;24.83;13.27;;;;;;;;;;5051156;28;20476;-58
2023/10/02 08:25:47;;;;;;;25.52;13.20;;;;;;;;;;5049740;28;20048;-57
2023/10/02 08:28:23;;;;;;;28.42;15.18;;;;;;;;;;5049753;28;20020;-57
2023/10/02 08:30:59;;;;;;;28.10;13.80;;;;;;;;;;5049903;28;20081;-58
2023/10/02 08:33:25;;;;;;;22.70;13.30;;;;;;;;;;5051433;28;20017;-58
2023/10/02 08:35:51;;;;;;;24.63;15.03;;;;;;;;;;5049000;28;20051;-59
2023/10/02 08:38:25;;;;;;;22.27;12.55;;;;;;;;;;5050283;28;20669;-58
2023/10/02 08:41:00;;;;;;;28.95;15.68;;;;;;;;;;5049595;28;20033;-58
2023/10/02 08:43:29;;;;;;;24.40;14.43;;;;;;;;;;5051435;28;20021;-58
2023/10/02 08:45:55;;;;;;;18.08;10.90;;;;;;;;;;5049306;28;20033;-57
2023/10/02 08:48:21;;;;;;;25.23;12.93;;;;;;;;;;5051123;28;20079;-58
2023/10/02 08:50:49;;;;;;;26.70;14.27;;;;;;;;;;5048835;28;20036;-58
2023/10/02 08:53:21;;;;;;;;;;;;;;;;;;5051922;28;20287;-58
2023/10/02 08:55:56;;;;;;;22.20;13.68;;;;;;;;;;5049235;28;19967;-57
2023/10/02 08:58:27;;;;;;;19.25;12.25;;;;;;;;;;5051184;28;20489;-58
2023/10/02 09:03:42;;;;;;;29.63;15.65;;;;;;;;;;5050597;28;20457;-58
2023/10/02 09:06:35;;;;;;;24.48;14.20;;;;;;;;;;5049177;28;20185;-58
2023/10/02 09:09:16;;;;;;;25.05;13.63;;;;;;;;;;5050733;28;20031;-58
2023/10/02 09:11:45;;;;;;;25.10;13.63;;;;;;;;;;5048664;28;20377;-58
2023/10/02 09:16:45;;;;;;;27.23;13.95;;;;;;;;;;5049027;28;20059;-57
2023/10/02 09:19:28;;;;;;;24.15;14.32;;;;;;;;;;5050435;28;20099;-58
2023/10/02 09:22:06;;;;;;;26.33;13.95;;;;;;;;;;5048714;28;20048;-57
2023/10/02 09:24:31;;;;;;;29.48;16.50;;;;;;;;;;5050293;28;20154;-58
2023/10/02 09:27:20;;;;;;;24.52;13.85;;;;;;;;;;5048448;28;20108;-57
2023/10/02 09:29:43;;;;;;;24.38;14.55;;;;;;;;;;5050219;28;20384;-58
2023/10/02 09:32:21;;;;;;;25.15;15.73;;;;;;;;;;5048872;28;20571;-58
2023/10/02 09:35:08;;;;;;;26.77;14.15;;;;;;;;;;5049698;28;20065;-58
2023/10/02 09:37:35;;;;;;;43.35;16.00;;;;;;;;;;5048755;28;20037;-58
2023/10/02 09:40:03;;;;;;;21.92;13.75;;;;;;;;;;5048596;28;20468;-57
2023/10/02 09:42:30;;;;;;;23.33;12.43;;;;;;;;;;5050158;28;20029;-58
2023/10/02 09:44:57;;;;;;;26.98;15.93;;;;;;;;;;5048429;28;20021;-58
2023/10/02 09:47:26;;;;;;;25.58;13.38;;;;;;;;;;5050076;28;20021;-59
2023/10/02 09:50:10;;;;;;;26.35;14.73;;;;;;;;;;5049508;28;20478;-57
2023/10/02 09:52:40;;;;;;;21.20;14.20;;;;;;;;;;5049229;28;20045;-57
2023/10/02 09:55:12;;;;;;;27.23;14.23;;;;;;;;;;5048343;28;20465;-57
2023/10/02 09:57:39;;;;;;;24.98;13.82;;;;;;;;;;5058960;28;20103;-59
2023/10/02 10:03:14;;;;;;;25.42;15.82;;;;;;;;;;5066600;28;20506;-57
2023/10/02 10:06:05;;;;;;;28.83;15.77;;;;;;;;;;5066044;28;20159;-57
2023/10/02 10:09:18;;;;;;;20.50;12.93;;;;;;;;;;5068321;28;20048;-57
2023/10/02 10:11:36;;;;;;;24.85;15.85;;;;;;;;;;5066693;28;20368;-57
2023/10/02 10:14:35;;;;;;;24.23;13.93;;;;;;;;;;5069214;28;20017;-57
2023/10/02 10:17:00;;;;;;;28.40;15.73;;;;;;;;;;5048276;28;20033;-59
2023/10/02 10:19:26;;;;;;;21.57;13.63;;;;;;;;;;5049684;28;20035;-59
2023/10/02 10:21:57;;;;;;;22.90;14.60;;;;;;;;;;5067262;28;20408;-59
2023/10/02 10:24:58;;;;;;;33.47;17.00;;;;;;;;;;5069854;28;20021;-59
2023/10/02 10:27:43;;;;;;;28.08;13.95;;;;;;;;;;5066273;28;20058;-56
2023/10/02 10:30:28;;;;;;;24.33;13.90;;;;;;;;;;5068171;28;20033;-57
2023/10/02 10:35:34;;;;;;;40.05;16.58;;;;;;;;;;5069223;28;20458;-58
2023/10/02 10:38:03;;;;;;;26.75;15.15;;;;;;;;;;5072724;28;20077;-57
2023/10/02 10:41:00;;;;;;;25.30;16.30;;;;;;;;;;5071708;28;20680;-59
2023/10/02 10:43:26;;;;;;;23.05;13.32;;;;;;;;;;5072648;28;20025;-57
2023/10/02 10:45:52;;;;;;;25.60;12.93;;;;;;;;;;5071478;28;20036;-57
2023/10/02 10:48:23;;;;;;;27.38;14.95;;;;;;;;;;5072433;28;20029;-68
2023/10/02 10:51:06;;;;;;;25.45;14.55;;;;;;;;;;5071394;28;20039;-59
2023/10/02 10:53:32;;;;;;;25.88;15.48;;;;;;;;;;5073513;28;20094;-59
2023/10/02 10:56:17;;;;;;;36.10;16.45;;;;;;;;;;5071059;28;20848;-58
2023/10/02 10:58:43;;;;;;;24.00;14.55;;;;;;;;;;5073273;28;20021;-59
2023/10/02 11:01:13;;;;;;;26.67;16.30;;;;;;;;;;5071786;28;20131;-58
2023/10/02 11:03:38;;;;;;;19.13;13.52;;;;;;;;;;5072823;28;20086;-58
2023/10/02 11:06:04;;;;;;;27.48;14.25;;;;;;;;;;5071404;28;20437;-59
2023/10/02 11:08:30;;;;;;;24.67;14.23;;;;;;;;;;5073085;28;20021;-58
2023/10/02 11:11:06;;;;;;;22.15;13.80;;;;;;;;;;5070791;28;20040;-58
2023/10/02 11:13:50;;;;;;;27.45;15.45;;;;;;;;;;5072889;28;20590;-59
2023/10/02 11:16:32;;;;;;;21.00;13.02;;;;;;;;;;5071356;28;20037;-58
2023/10/02 11:22:14;;;;;;;24.65;12.80;;;;;;;;;;5071108;28;20446;-59
2023/10/02 11:24:39;;;;;;;22.00;12.95;;;;;;;;;;5072254;28;20047;-59
2023/10/02 11:27:05;;;;;;;22.88;14.40;;;;;;;;;;5071220;28;20419;-58
2023/10/02 11:29:43;;;;;;;26.20;14.38;;;;;;;;;;5072691;28;20016;-58
2023/10/02 11:32:20;;;;;;;;;;;;;;;;;;5071515;28;20052;-58
2023/10/02 11:34:45;;;;;;;;;;;;;;;;;;5072627;28;20386;-58
2023/10/02 11:37:11;;;;;;;29.27;15.02;;;;;;;;;;5071056;28;20355;-58
2023/10/02 11:39:36;;;;;;;24.85;13.70;;;;;;;;;;5072539;28;20012;-58
2023/10/02 11:42:05;;;;;;;25.50;12.90;;;;;;;;;;5070801;28;20028;-58
2023/10/02 11:44:31;;;;;;;22.67;14.52;;;;;;;;;;5072321;28;20031;-58
2023/10/02 11:46:56;;;;;;;23.15;13.23;;;;;;;;;;5069364;28;20029;-58
2023/10/02 11:49:21;;;;;;;20.93;14.00;;;;;;;;;;5069441;28;20039;-58
2023/10/02 11:51:46;;;;;;;21.53;13.90;;;;;;;;;;5070397;28;20483;-59
2023/10/02 11:54:13;;;;;;;23.20;13.70;;;;;;;;;;5071788;28;20115;-58
2023/10/02 11:56:38;;;;;;;33.47;14.73;;;;;;;;;;5065433;28;20171;-59
2023/10/02 11:59:03;;;;;;;22.73;12.53;;;;;;;;;;5072073;28;20511;-57
2023/10/02 12:01:29;;;;;;;23.53;13.43;;;;;;;;;;5070381;28;20046;-57
2023/10/02 12:03:57;;;;;;;20.70;13.50;;;;;;;;;;5071660;28;20446;-58
2023/10/02 12:06:28;;;;;;;23.52;11.73;;;;;;;;;;5070388;28;20434;-58
2023/10/02 12:08:58;;;;;;;26.20;13.27;;;;;;;;;;5069873;28;20425;-58
2023/10/02 12:11:24;;;;;;;21.48;12.73;;;;;;;;;;5070168;28;20051;-66
2023/10/02 12:13:50;;;;;;;33.10;14.73;;;;;;;;;;5071816;28;20048;-58
2023/10/02 12:16:15;;;;;;;23.92;14.50;;;;;;;;;;5070008;28;20143;-57
2023/10/02 12:18:41;;;;;;;29.47;12.63;;;;;;;;;;5070317;28;20028;-57
2023/10/02 12:21:08;;;;;;;25.63;14.65;;;;;;;;;;5070333;28;20440;-58
2023/10/02 12:23:38;;;;;;;25.52;13.63;;;;;;;;;;5070014;28;20017;-58
2023/10/02 12:26:04;;;;;;;21.60;11.48;;;;;;;;;;5070043;28;20074;-58
2023/10/02 12:28:29;;;;;;;24.63;14.18;;;;;;;;;;5071352;28;20021;-59
2023/10/02 12:30:54;;;;;;;23.63;13.40;;;;;;;;;;5069483;28;20060;-58
2023/10/02 12:33:19;;;;;;;21.88;13.82;;;;;;;;;;5070089;28;20383;-58
2023/10/02 12:35:44;;;;;;;22.73;12.07;;;;;;;;;;5069717;28;20037;-58
2023/10/02 12:38:11;;;;;;;27.63;13.60;;;;;;;;;;5071220;28;20078;-58
2023/10/02 12:40:36;;;;;;;27.50;14.30;;;;;;;;;;5069837;28;20036;-59
2023/10/02 12:43:01;;;;;;;24.25;12.27;;;;;;;;;;5070956;28;20529;-58
2023/10/02 12:45:27;;;;;;;26.27;13.63;;;;;;;;;;5069285;28;20051;-59
2023/10/02 12:47:55;;;;;;;27.98;14.27;;;;;;;;;;5070956;28;20066;-58
2023/10/02 12:50:20;;;;;;;19.05;12.75;;;;;;;;;;5069891;28;20028;-59
2023/10/02 12:52:45;;;;;;;30.00;16.10;;;;;;;;;;5070365;28;20021;-59
2023/10/02 12:55:10;;;;;;;25.67;14.95;;;;;;;;;;5069891;28;20017;-58
2023/10/02 12:57:36;;;;;;;22.15;12.73;;;;;;;;;;5070540;28;20506;-59
2023/10/02 13:00:02;;;;;;;25.50;15.30;;;;;;;;;;5068857;28;20028;-59
2023/10/02 13:02:27;;;;;;;18.83;12.07;;;;;;;;;;5070915;28;20051;-60
2023/10/02 13:04:54;;;;;;;25.23;14.43;;;;;;;;;;5064127;28;20048;-59
2023/10/02 13:07:20;;;;;;;28.33;14.80;;;;;;;;;;5067244;28;20037;-59
2023/10/02 13:09:46;;;;;;;20.33;13.70;;;;;;;;;;5068589;28;20023;-58
2023/10/02 13:12:11;;;;;;;25.90;16.75;;;;;;;;;;5050328;28;20479;-69
2023/10/02 13:14:37;;;;;;;22.67;13.38;;;;;;;;;;5050843;28;20020;-59
2023/10/02 13:17:03;;;;;;;27.58;16.83;;;;;;;;;;5066609;28;20025;-59
2023/10/02 13:19:28;;;;;;;31.15;14.13;;;;;;;;;;5070962;28;20021;-59
2023/10/02 13:21:53;;;;;;;29.10;15.98;;;;;;;;;;5052139;28;20049;-59
2023/10/02 13:24:23;;;;;;;24.50;14.73;;;;;;;;;;5050055;28;20020;-59
2023/10/02 13:26:48;;;;;;;26.33;15.85;;;;;;;;;;5064476;28;20086;-60
2023/10/02 13:29:13;;;;;;;27.15;16.00;;;;;;;;;;5070513;28;20020;-59
2023/10/02 13:31:38;;;;;;;28.50;15.82;;;;;;;;;;5052587;28;20033;-61
2023/10/02 13:34:06;;;;;;;24.98;14.73;;;;;;;;;;5050256;28;20053;-59
2023/10/02 13:36:33;;;;;;;22.08;12.57;;;;;;;;;;5062413;28;20106;-59
2023/10/02 13:38:58;;;;;;;30.52;13.93;;;;;;;;;;5066669;28;20020;-64
2023/10/02 13:41:25;;;;;;;18.85;12.68;;;;;;;;;;5055143;28;20036;-59
2023/10/02 13:43:53;;;;;;;26.23;14.48;;;;;;;;;;5050049;28;20024;-59
2023/10/02 13:46:20;;;;;;;31.48;14.75;;;;;;;;;;5060052;28;20045;-59
2023/10/02 13:48:46;;;;;;;23.63;13.68;;;;;;;;;;5070240;28;20028;-59
2023/10/02 13:51:13;;;;;;;30.77;14.65;;;;;;;;;;5058146;28;20086;-59
2023/10/02 13:53:40;;;;;;;20.55;13.73;;;;;;;;;;5049881;28;20448;-59
2023/10/02 13:56:20;;;;;;;22.85;13.68;;;;;;;;;;5058812;28;20112;-59
2023/10/02 13:58:50;;;;;;;22.13;13.88;;;;;;;;;;5069911;28;20531;-59
2023/10/02 14:01:16;;;;;;;29.80;15.68;;;;;;;;;;5057120;28;20041;-59
2023/10/02 14:03:45;;;;;;;24.42;14.20;;;;;;;;;;5050245;28;20147;-59
2023/10/02 14:06:12;;;;;;;24.70;15.02;;;;;;;;;;5058914;28;20499;-59
2023/10/02 14:08:39;;;;;;;20.23;12.90;;;;;;;;;;5069921;28;20025;-59
2023/10/02 14:11:04;;;;;;;24.90;14.85;;;;;;;;;;5061561;28;20455;-59
2023/10/02 14:13:29;;;;;;;18.57;12.03;;;;;;;;;;5054185;28;20021;-59
2023/10/02 14:15:55;;;;;;;29.60;14.97;;;;;;;;;;5059049;28;20115;-59
2023/10/02 14:18:23;;;;;;;28.42;14.48;;;;;;;;;;5073744;28;20020;-59
2023/10/02 14:20:56;;;;;;;24.02;14.20;;;;;;;;;;5063055;28;20166;-72
2023/10/02 14:23:21;;;;;;;27.92;14.63;;;;;;;;;;5053181;28;20021;-59
2023/10/02 14:25:47;;;;;;;26.42;14.50;;;;;;;;;;5059425;28;20060;-59
2023/10/02 14:28:12;;;;;;;27.30;14.20;;;;;;;;;;5074005;28;20054;-59
2023/10/02 14:30:39;;;;;;;25.90;14.77;;;;;;;;;;5066061;28;20584;-59
2023/10/02 14:33:05;;;;;;;29.08;13.68;;;;;;;;;;5053625;28;20861;-59
2023/10/02 14:35:30;;;;;;;27.38;14.85;;;;;;;;;;5052156;28;20048;-59
2023/10/02 14:37:56;;;;;;;22.48;13.68;;;;;;;;;;5064513;28;20115;-59
2023/10/02 14:40:29;;;;;;;20.70;13.35;;;;;;;;;;5065098;28;20013;-59
2023/10/02 14:43:00;;;;;;;27.75;14.88;;;;;;;;;;5033380;28;20459;-59
2023/10/02 14:45:26;;;;;;;19.25;12.55;;;;;;;;;;5048818;28;20749;-65
2023/10/02 14:47:53;;;;;;;24.50;14.43;;;;;;;;;;5067793;28;20033;-64
2023/10/02 14:50:19;;;;;;;21.92;11.98;;;;;;;;;;5071618;28;20111;-59
2023/10/02 14:52:44;;;;;;;29.20;13.77;;;;;;;;;;5062531;28;20652;-58
2023/10/02 14:55:16;;;;;;;23.90;13.20;;;;;;;;;;5053298;28;20032;-58
2023/10/02 14:57:43;;;;;;;19.20;11.57;;;;;;;;;;5051528;28;20055;-58
2023/10/02 15:00:09;;;;;;;23.13;12.80;;;;;;;;;;5053043;28;20384;-61
2023/10/02 15:02:34;;;;;;;27.45;15.80;;;;;;;;;;5050341;28;20495;-58
2023/10/02 15:04:59;;;;;;;24.70;12.73;;;;;;;;;;5056477;28;20124;-58
2023/10/02 15:07:25;;;;;;;19.93;12.33;;;;;;;;;;5050690;28;21013;-58